METAR & TAF

RJAH 262211Z 08005KT 3500 -RADZ BR FEW003 BKN004 OVC010 16/14 Q1006 RMK 2ST003 7ST004 8ST010 A2973 VIS N-NE 2500M
RJAH 262207Z 07005KT 5000 -RADZ BR FEW003 BKN004 OVC010 16/14 Q1006 RMK 2ST003 7ST004 8ST010 A2973 VIS E-S 3000M
RJAH 262200Z 08005KT 6000 -DZ FEW003 BKN005 OVC010 16/14 Q1006
RJAH 262117Z 08004KT 5000 -DZ BR FEW004 BKN006 OVC010 16/14 Q1006 RMK 1ST004 7ST006 8ST010 A2972 VIS NE 4000M
RJAH 262100Z 10005KT 060V130 4000 -DZ BR FEW004 BKN006 OVC010 16/14 Q1006
RJAH 262043Z 10005KT 060V130 3200 -DZ BR FEW003 BKN005 OVC010 16/14 Q1006 RMK 1ST003 7ST005 8ST010 A2971 VIS N-NE 2500M
RJAH 262000Z 07006KT 030V100 3000 -DZ BR FEW002 OVC004 15/14 Q1005
RJAH 261939Z 07005KT 040V100 2500 -DZ BR FEW001 OVC003 15/14 Q1005 RMK 1ST001 8ST003 A2969 VIS NE-SE 1500M
RJAH 261900Z 07007KT 030V090 2400 BR FEW001 BKN003 15/14 Q1005
RJAH 261800Z 07007KT 2000 -DZ BR FEW001 BKN002 15/14 Q1005

TAF RJAH 261706Z 2618/2800 07010KT 3000 BR FEW002 BKN005
  TEMPO 2618/2622 1200 BR BCFG
  BECMG 2700/2702 8000 NSW FEW008 BKN012
  TEMPO 2709/2715 4000 BR FEW005 BKN008
  BECMG 2715/2718 36004KT
  BECMG 2721/2800 20006KT